Time;durP1;ratioP1;P1;durP2;ratioP2;P2;SDS_P1;SDS_P2;PMS_P1;PMS_P2;Temp;Humidity;BMP_temperature;BMP_pressure;BME280_temperature;BME280_humidity;BME280_pressure;Samples;Min_cycle;Max_cycle;Signal;HPM_P1;HPM_P2
2023/05/23 00:01:36;;;;;;;;;;;;;;;27.99;42.08;94128.53;4944470;28;9469;-60
2023/05/23 00:04:15;;;;;;;;;;;;;;;27.99;41.39;94125.03;4936839;28;7025;-60
2023/05/23 00:07:11;;;;;;;;;;;;;;;27.98;41.74;94120.78;4954417;28;7049;-61
2023/05/23 00:09:43;;;;;;;;;;;;;;;27.96;41.59;94121.28;4938019;28;8969;-60
2023/05/23 00:12:21;;;;;;;;;;;;;;;27.97;42.60;94117.25;4927200;28;9057;-61
2023/05/23 00:14:48;;;;;;;;;;;;;;;27.94;42.45;94121.09;4936101;28;7055;-60
2023/05/23 00:17:31;;;;;;;;;;;;;;;27.97;41.93;94110.97;4938648;28;8397;-61
2023/05/23 00:20:35;;;;;;;;;;;;;;;27.96;41.97;94103.94;4966368;28;6983;-61
2023/05/23 00:23:24;;;;;;;;;;;;;;;27.95;42.15;94105.25;4951238;28;9030;-61
2023/05/23 00:26:22;;;;;;;;;;;;;;;27.95;42.41;94096.94;4930974;28;7931;-60
2023/05/23 00:29:00;;;;;;;;;;;;;;;27.94;42.14;94103.75;4941645;28;9118;-60
2023/05/23 00:31:45;;;;;;;;;;;;;;;27.91;42.30;94096.50;4918071;29;7265;-60
2023/05/23 00:34:30;;;;;;;;;;;;;;;27.92;42.22;94101.53;4926537;29;9201;-60
2023/05/23 00:37:10;;;;;;;;;;;;;;;27.91;41.92;94094.50;4920120;29;9425;-60
2023/05/23 00:40:13;;;;;;;;;;;;;;;27.92;42.50;94104.28;4933577;29;7064;-61
2023/05/23 00:42:59;;;;;;;;;;;;;;;27.93;42.04;94105.00;4953890;28;7038;-60
2023/05/23 00:46:16;;;;;;;;;;;;;;;27.91;42.05;94100.03;4937381;29;7040;-60
2023/05/23 00:48:52;;;;;;;;;;;;;;;27.88;41.96;94089.28;4912565;29;9192;-60
2023/05/23 00:51:32;;;;;;;;;;;;;;;27.85;41.89;94093.88;4923009;29;9059;-60
2023/05/23 00:54:13;;;;;;;;;;;;;;;27.80;42.21;94085.66;4899312;29;7336;-60
2023/05/23 00:56:55;;;;;;;;;;;;;;;27.80;42.13;94096.72;4919774;28;9628;-60
2023/05/23 01:00:19;;;;;;;;;;;;;;;27.79;42.35;94101.53;4989651;28;8750;-60
2023/05/23 01:03:16;;;;;;;;;;;;;;;27.79;42.44;94096.00;4919003;29;7044;-60
2023/05/23 01:05:55;;;;;;;;;;;;;;;27.78;42.36;94099.28;4920441;29;7469;-60
2023/05/23 01:08:49;;;;;;;;;;;;;;;27.77;42.45;94095.78;4931322;29;7049;-60
2023/05/23 01:11:41;;;;;;;;;;;;;;;27.77;42.03;94103.34;4900814;29;7365;-60
2023/05/23 01:14:47;;;;;;;;;;;;;;;27.77;42.37;94111.63;4918981;29;7209;-60
2023/05/23 01:17:53;;;;;;;;;;;;;;;27.74;42.41;94110.66;4973908;28;7032;-61
2023/05/23 01:20:54;;;;;;;;;;;;;;;27.75;42.46;94100.34;4972359;28;7305;-61
2023/05/23 01:27:03;;;;;;;;;;;;;;;27.73;42.84;94102.91;4858904;29;7123;-61
2023/05/23 01:29:55;;;;;;;;;;;;;;;27.74;42.57;94112.69;4856559;29;7250;-60
2023/05/23 01:32:41;;;;;;;;;;;;;;;27.73;42.56;94116.72;4858860;29;7008;-60
2023/05/23 01:35:21;;;;;;;;;;;;;;;27.73;42.47;94111.19;4843409;29;7503;-60
2023/05/23 01:37:48;;;;;;;;;;;;;;;27.69;42.24;94102.50;4857561;29;7204;-60
2023/05/23 01:40:19;;;;;;;;;;;;;;;27.72;42.71;94109.69;4858305;29;9058;-61
2023/05/23 01:43:06;;;;;;;;;;;;;;;27.70;42.40;94104.72;4860199;29;7044;-61
2023/05/23 01:45:33;;;;;;;;;;;;;;;27.72;42.25;94102.16;4857548;29;7379;-61
2023/05/23 01:48:22;;;;;;;;;;;;;;;27.73;42.08;94108.44;4862863;29;7035;-61
2023/05/23 01:51:21;;;;;;;;;;;;;;;27.73;42.12;94116.72;4849274;29;9088;-61
2023/05/23 01:54:34;;;;;;;;;;;;;;;27.73;42.44;94125.03;4847767;29;7221;-60
2023/05/23 01:57:11;;;;;;;;;;;;;;;27.71;42.38;94119.28;4847018;29;7246;-61
2023/05/23 02:00:05;;;;;;;;;;;;;;;27.72;42.35;94120.75;4921142;29;8711;-61
2023/05/23 02:02:42;;;;;;;;;;;;;;;27.69;42.55;94114.28;4940169;28;8721;-60
2023/05/23 02:05:37;;;;;;;;;;;;;;;27.69;42.65;94116.31;4956254;28;9415;-60
2023/05/23 02:08:05;;;;;;;;;;;;;;;27.68;42.57;94125.88;4940852;28;9694;-61
2023/05/23 02:11:23;;;;;;;;;;;;;;;27.68;42.53;94125.88;4940539;28;9433;-61
2023/05/23 02:14:02;;;;;;;;;;;;;;;27.68;42.59;94112.03;4940695;28;9035;-60
2023/05/23 02:16:29;;;;;;;;;;;;;;;27.68;42.36;94114.81;4940143;28;9092;-60
2023/05/23 02:19:06;;;;;;;;;;;;;;;27.66;42.28;94115.34;4939779;28;7260;-60
2023/05/23 02:21:40;;;;;;;;;;;;;;;27.66;42.43;94123.63;4937837;28;8150;-60
2023/05/23 02:24:06;;;;;;;;;;;;;;;27.66;42.37;94120.13;4954011;28;7051;-61
2023/05/23 02:26:34;;;;;;;;;;;;;;;27.67;42.58;94118.84;4934795;29;7050;-61
2023/05/23 02:29:04;;;;;;;;;;;;;;;27.66;42.60;94120.13;4944457;28;7254;-61
2023/05/23 02:31:39;;;;;;;;;;;;;;;27.63;42.62;94119.16;4988650;28;7311;-61
2023/05/23 02:34:26;;;;;;;;;;;;;;;27.67;42.66;94127.13;5007356;28;7142;-61
2023/05/23 02:36:53;;;;;;;;;;;;;;;27.66;42.55;94120.13;4997739;28;7478;-60
2023/05/23 02:39:22;;;;;;;;;;;;;;;27.66;41.98;94120.88;4997696;28;7023;-61
2023/05/23 02:41:50;;;;;;;;;;;;;;;27.64;42.57;94115.84;5012622;28;8823;-61
2023/05/23 02:44:18;;;;;;;;;;;;;;;27.65;42.52;94113.84;5008466;28;7059;-61
2023/05/23 02:46:52;;;;;;;;;;;;;;;27.64;41.94;94115.13;5041613;28;7492;-61
2023/05/23 02:49:19;;;;;;;;;;;;;;;27.61;42.50;94108.66;5034328;28;7244;-60
2023/05/23 02:51:47;;;;;;;;;;;;;;;27.67;42.55;94111.28;5034700;28;7200;-60
2023/05/23 02:54:17;;;;;;;;;;;;;;;27.71;42.37;94117.25;5024286;28;7028;-60
2023/05/23 02:57:00;;;;;;;;;;;;;;;27.70;42.36;94115.78;5018502;28;9097;-60
2023/05/23 02:59:35;;;;;;;;;;;;;;;27.68;42.47;94106.50;5034887;28;7204;-60
2023/05/23 03:02:02;;;;;;;;;;;;;;;27.61;42.49;94111.41;5037890;28;7336;-60
2023/05/23 03:04:36;;;;;;;;;;;;;;;27.70;42.18;94113.00;5032926;28;9236;-60
2023/05/23 03:07:05;;;;;;;;;;;;;;;27.70;42.52;94115.78;5029175;28;7049;-60
2023/05/23 03:09:36;;;;;;;;;;;;;;;27.71;42.33;94117.25;5015867;28;7289;-60
2023/05/23 03:12:08;;;;;;;;;;;;;;;27.72;41.94;94124.28;5006127;28;7034;-60
2023/05/23 03:14:35;;;;;;;;;;;;;;;27.72;42.40;94120.75;5049668;28;7057;-60
2023/05/23 03:17:02;;;;;;;;;;;;;;;27.71;42.57;94122.03;5030522;28;6953;-60
2023/05/23 03:19:31;;;;;;;;;;;;;;;27.71;42.34;94122.78;5031925;28;7041;-60
2023/05/23 03:22:05;;;;;;;;;;;;;;;27.70;42.30;94126.06;5025401;28;7096;-60
2023/05/23 03:24:36;;;;;;;;;;;;;;;27.71;42.37;94122.78;5024783;28;7257;-60
2023/05/23 03:27:04;;;;;;;;;;;;;;;27.68;42.15;94126.63;5025017;28;7751;-60
2023/05/23 03:30:04;;;;;;;;;;;;;;;27.69;42.37;94133.59;5015537;28;9472;-61
2023/05/23 03:32:31;;;;;;;;;;;;;;;27.68;42.15;94131.38;4952187;28;7044;-60
2023/05/23 03:34:58;;;;;;;;;;;;;;;27.69;42.23;94132.88;4936080;28;7067;-60
2023/05/23 03:37:28;;;;;;;;;;;;;;;27.64;42.69;94129.69;4951859;28;7436;-61
2023/05/23 03:40:30;;;;;;;;;;;;;;;27.68;42.31;94139.69;4952431;28;6926;-60
2023/05/23 03:43:12;;;;;;;;;;;;;;;27.66;42.33;94136.69;4938469;28;7441;-60
2023/05/23 03:45:39;;;;;;;;;;;;;;;27.67;42.93;94138.94;4945027;28;7243;-60
2023/05/23 03:48:16;;;;;;;;;;;;;;;27.62;42.08;94135.00;4954351;28;8898;-61
2023/05/23 03:50:55;;;;;;;;;;;;;;;27.68;42.29;94137.66;4953491;28;9800;-60
2023/05/23 03:53:33;;;;;;;;;;;;;;;27.67;42.29;94144.44;4958107;28;7064;-60
2023/05/23 03:56:04;;;;;;;;;;;;;;;27.65;42.25;94133.19;4952988;28;7040;-60
2023/05/23 03:58:35;;;;;;;;;;;;;;;27.64;42.40;94137.97;4954604;28;7795;-61
2023/05/23 04:01:30;;;;;;;;;;;;;;;27.67;42.46;94147.22;4949925;28;7027;-60
2023/05/23 04:03:59;;;;;;;;;;;;;;;27.66;42.51;94145.00;4895802;29;9280;-60
2023/05/23 04:06:47;;;;;;;;;;;;;;;27.66;42.23;94153.28;4896954;29;7030;-60
2023/05/23 04:09:27;;;;;;;;;;;;;;;27.61;42.32;94147.34;4951905;28;7564;-61
2023/05/23 04:12:08;;;;;;;;;;;;;;;27.61;42.28;94155.63;4973970;28;9035;-61
2023/05/23 04:14:36;;;;;;;;;;;;;;;27.60;42.61;94150.59;4971376;28;7616;-60
2023/05/23 04:17:04;;;;;;;;;;;;;;;27.63;42.77;94166.88;4954392;28;8817;-60
2023/05/23 04:19:31;;;;;;;;;;;;;;;27.61;42.44;94158.38;4963729;28;8874;-60
2023/05/23 04:21:59;;;;;;;;;;;;;;;27.63;42.49;94169.66;4953195;28;9000;-60
2023/05/23 04:24:25;;;;;;;;;;;;;;;27.60;42.04;94167.94;4972149;28;9363;-60
2023/05/23 04:26:55;;;;;;;;;;;;;;;27.60;41.88;94167.94;4950558;28;7257;-60
2023/05/23 04:29:30;;;;;;;;;;;;;;;27.61;42.38;94169.44;4967765;28;7121;-60
2023/05/23 04:32:18;;;;;;;;;;;;;;;27.56;42.61;94156.44;4957969;28;7064;-61
2023/05/23 04:34:45;;;;;;;;;;;;;;;27.59;42.37;94166.47;4956344;28;6983;-61
2023/05/23 04:37:13;;;;;;;;;;;;;;;27.58;43.03;94170.47;4960803;28;9087;-61
2023/05/23 04:39:39;;;;;;;;;;;;;;;27.61;42.23;94169.44;4961334;28;6991;-61
2023/05/23 04:42:06;;;;;;;;;;;;;;;27.63;42.26;94171.66;5037024;28;7104;-61
2023/05/23 04:44:36;;;;;;;;;;;;;;;27.60;42.31;94159.66;5033055;28;9726;-61
2023/05/23 04:47:10;;;;;;;;;;;;;;;27.60;42.35;94156.13;5032081;28;7507;-61
2023/05/23 04:49:36;;;;;;;;;;;;;;;27.61;42.03;94158.38;5035486;28;8997;-61
2023/05/23 04:52:10;;;;;;;;;;;;;;;27.61;42.75;94165.91;5027151;28;7299;-61
2023/05/23 04:54:45;;;;;;;;;;;;;;;27.59;42.43;94162.94;5051208;28;6991;-61
2023/05/23 04:57:11;;;;;;;;;;;;;;;27.62;42.23;94173.66;5020686;28;7462;-60
2023/05/23 04:59:38;;;;;;;;;;;;;;;27.64;42.42;94179.41;5020596;28;7350;-60
2023/05/23 05:02:05;;;;;;;;;;;;;;;27.64;42.24;94182.16;5020260;28;7023;-61
2023/05/23 05:04:33;;;;;;;;;;;;;;;27.63;42.49;94180.69;5023775;28;7074;-60
2023/05/23 05:07:02;;;;;;;;;;;;;;;27.62;42.47;94176.44;5019694;28;7500;-60
2023/05/23 05:09:30;;;;;;;;;;;;;;;27.63;42.66;94180.69;5024664;28;7291;-60
2023/05/23 05:12:00;;;;;;;;;;;;;;;27.62;42.53;94181.97;5036011;28;7098;-60
2023/05/23 05:14:29;;;;;;;;;;;;;;;27.59;42.56;94182.28;5028827;28;7284;-61
2023/05/23 05:16:58;;;;;;;;;;;;;;;27.61;42.65;94185.25;5030737;28;9208;-60
2023/05/23 05:19:26;;;;;;;;;;;;;;;27.62;43.06;94184.72;5033901;28;7147;-61
2023/05/23 05:21:56;;;;;;;;;;;;;;;27.57;42.91;94188.34;5034884;28;7088;-61
2023/05/23 05:24:24;;;;;;;;;;;;;;;27.63;42.58;94194.50;5033642;28;7382;-61
2023/05/23 05:26:52;;;;;;;;;;;;;;;27.63;42.94;94185.47;5038082;28;7514;-61
2023/05/23 05:29:18;;;;;;;;;;;;;;;27.61;42.93;94183.25;5041102;28;7352;-60
2023/05/23 05:31:45;;;;;;;;;;;;;;;27.62;42.69;94181.25;5032939;28;7010;-60
2023/05/23 05:34:16;;;;;;;;;;;;;;;27.58;42.79;94173.25;5024693;28;7874;-60
2023/05/23 05:36:48;;;;;;;;;;;;;;;27.60;42.86;94192.78;5036464;28;9134;-60
2023/05/23 05:39:14;;;;;;;;;;;;;;;27.58;42.92;94189.06;5052228;28;7509;-60
2023/05/23 05:41:43;;;;;;;;;;;;;;;27.59;43.04;94191.31;5031511;28;8790;-60
2023/05/23 05:44:15;;;;;;;;;;;;;;;27.57;43.21;94191.13;5033679;28;8992;-61
2023/05/23 05:46:47;;;;;;;;;;;;;;;27.53;43.26;94185.13;5024733;28;7141;-60
2023/05/23 05:49:13;;;;;;;;;;;;;;;27.55;43.21;94190.91;5025730;28;9028;-60
2023/05/23 05:51:38;;;;;;;;;;;;;;;27.54;43.37;94191.41;5014717;28;7029;-61
2023/05/23 05:54:07;;;;;;;;;;;;;;;27.55;42.92;94187.38;5010090;28;7025;-61
2023/05/23 05:56:41;;;;;;;;;;;;;;;27.52;42.94;94189.19;5013265;28;9415;-61
2023/05/23 05:59:12;;;;;;;;;;;;;;;27.55;43.07;94188.13;5024596;28;7266;-61
2023/05/23 06:01:40;;;;;;;;;;;;;;;27.57;42.76;94196.63;5008809;28;7033;-61
2023/05/23 06:04:11;;;;;;;;;;;;;;;27.51;42.73;94182.16;5031952;28;7113;-61
2023/05/23 06:06:40;;;;;;;;;;;;;;;27.56;43.31;94195.13;5022983;28;9043;-61
2023/05/23 06:09:06;;;;;;;;;;;;;;;27.56;42.85;94195.13;5009176;28;7245;-61
2023/05/23 06:11:33;;;;;;;;;;;;;;;27.56;42.84;94200.66;5007720;28;7210;-61
2023/05/23 06:14:02;;;;;;;;;;;;;;;27.54;42.72;94196.94;5007703;28;7252;-61
2023/05/23 06:16:35;;;;;;;;;;;;;;;27.52;42.84;94191.94;5010845;28;9199;-60
2023/05/23 06:19:14;;;;;;;;;;;;;;;27.56;43.22;94197.16;5025334;28;7092;-61
2023/05/23 06:22:09;;;;;;;;;;;;;;;27.60;42.80;94195.56;5035677;28;9149;-61
2023/05/23 06:24:37;;;;;;;;;;;;;;;27.57;42.91;94191.13;4969557;28;9075;-61
2023/05/23 06:27:05;;;;;;;;;;;;;;;27.59;42.88;94194.09;4986755;28;7336;-60
2023/05/23 06:29:40;;;;;;;;;;;;;;;27.57;42.81;94191.13;4988420;28;7320;-61
2023/05/23 06:32:26;;;;;;;;;;;;;;;27.60;43.06;94194.81;4968485;28;9049;-61
2023/05/23 06:35:24;;;;;;;;;;;;;;;27.60;43.38;94205.88;4988687;28;7072;-61
2023/05/23 06:38:16;;;;;;;;;;;;;;;27.62;43.26;94209.59;4952227;28;7320;-61
2023/05/23 06:40:44;;;;;;;;;;;;;;;27.62;43.21;94206.81;4951680;28;7122;-61
2023/05/23 06:43:10;;;;;;;;;;;;;;;27.62;43.48;94204.06;4932111;28;8495;-61
2023/05/23 06:46:10;;;;;;;;;;;;;;;27.64;43.50;94203.56;4953168;28;9129;-61
2023/05/23 06:48:49;;;;;;;;;;;;;;;27.60;43.80;94206.63;4951648;28;7362;-61
2023/05/23 06:51:15;;;;;;;;;;;;;;;27.60;43.77;94205.88;4953674;28;9442;-61
2023/05/23 06:53:50;;;;;;;;;;;;;;;27.58;43.96;94205.66;4937943;28;9156;-61
2023/05/23 06:56:25;;;;;;;;;;;;;;;27.60;43.65;94212.13;4952948;28;9209;-61
2023/05/23 06:58:57;;;;;;;;;;;;;;;27.61;44.07;94216.41;4951622;28;7462;-61
2023/05/23 07:01:35;;;;;;;;;;;;;;;27.63;43.96;94219.38;4961482;28;7287;-61
2023/05/23 07:04:02;;;;;;;;;;;;;;;27.62;44.04;94214.41;4974869;28;8737;-61
2023/05/23 07:06:28;;;;;;;;;;;;;;;27.64;44.13;94215.34;4975042;28;8959;-61
2023/05/23 07:09:03;;;;;;;;;;;;;;;27.66;43.39;94217.59;4989746;28;7264;-61
2023/05/23 07:11:31;;;;;;;;;;;;;;;27.68;43.69;94217.03;4973868;28;8737;-61
2023/05/23 07:14:17;;;;;;;;;;;;;;;27.66;43.42;94219.59;5017126;28;7071;-61
2023/05/23 07:16:43;;;;;;;;;;;;;;;27.66;43.46;94225.13;5023144;28;7045;-61
2023/05/23 07:19:20;;;;;;;;;;;;;;;27.66;43.85;94225.13;5014584;28;7119;-61
2023/05/23 07:21:56;;;;;;;;;;;;;;;27.60;43.95;94217.66;5010118;28;7066;-61
2023/05/23 07:24:43;;;;;;;;;;;;;;;27.62;43.55;94234.47;5008705;28;9269;-61
2023/05/23 07:27:40;;;;;;;;;;;;;;;27.63;43.66;94246.25;5010227;28;7218;-61
2023/05/23 07:33:48;;;;;;;;;;;;;;;27.60;43.88;94234.25;5025306;28;7155;-60
2023/05/23 07:36:36;;;;;;;;;;;;;;;27.58;43.57;94242.31;5021879;28;9151;-61
2023/05/23 07:39:10;;;;;;;;;;;;;;;27.57;43.75;94238.06;5013172;28;9858;-61
2023/05/23 07:41:51;;;;;;;;;;;;;;;27.61;43.58;94246.78;5015019;28;9088;-60
2023/05/23 07:44:27;;;;;;;;;;;;;;;27.62;43.73;94248.28;5023496;28;7277;-60
2023/05/23 07:46:55;;;;;;;;;;;;;;;27.60;43.66;94250.81;5034629;28;9028;-61
2023/05/23 07:49:24;;;;;;;;;;;;;;;27.63;43.79;94244.25;5010271;28;7212;-61
2023/05/23 07:52:25;;;;;;;;;;;;;;;27.63;43.73;94244.25;5025572;28;7303;-60
2023/05/23 07:55:42;;;;;;;;;;;;;;;27.64;43.92;94248.50;5025953;28;8859;-61
2023/05/23 07:58:18;;;;;;;;;;;;;;;27.63;43.72;94249.78;5023531;28;9515;-61
2023/05/23 08:01:32;;;;;;;;;;;;;;;27.63;43.69;94254.56;5023379;28;7265;-60
2023/05/23 08:04:01;;;;;;;;;;;;;;;27.58;43.71;94239.56;5022529;28;7260;-61
2023/05/23 08:06:30;;;;;;;;;;;;;;;27.62;43.25;94248.28;5048922;28;7080;-60
2023/05/23 08:09:37;;;;;;;;;;;;;;;27.61;43.61;94252.31;5052798;28;7393;-61
2023/05/23 08:12:07;;;;;;;;;;;;;;;27.62;43.68;94248.28;5032945;28;7145;-60
2023/05/23 08:15:05;;;;;;;;;;;;;;;27.62;43.52;94251.03;5030490;28;7084;-61
2023/05/23 08:18:03;;;;;;;;;;;;;;;27.63;43.49;94249.78;5032716;28;7468;-60
2023/05/23 08:20:30;;;;;;;;;;;;;;;27.64;43.67;94251.25;4999057;28;9006;-61
2023/05/23 08:23:17;;;;;;;;;;;;;;;27.66;43.40;94250.00;5003957;28;7429;-61
2023/05/23 08:29:19;;;;;;;;;;;;;;;27.62;43.33;94258.59;5000118;28;8951;-61
2023/05/23 08:32:41;;;;;;;;;;;;;;;27.63;43.71;94258.06;4987330;28;9119;-61
2023/05/23 08:35:36;;;;;;;;;;;;;;;27.63;43.63;94255.31;5001890;28;7088;-61
2023/05/23 08:38:37;;;;;;;;;;;;;;;27.63;43.63;94260.81;5012754;28;9719;-61
2023/05/23 08:41:21;;;;;;;;;;;;;;;27.64;43.64;94262.31;4948083;28;7243;-61
2023/05/23 08:44:15;;;;;;;;;;;;;;;27.63;43.69;94257.31;4948111;28;7209;-61
2023/05/23 08:46:45;;;;;;;;;;;;;;;27.62;43.48;94266.88;4931907;29;7427;-61
2023/05/23 08:49:16;;;;;;;;;;;;;;;27.62;43.84;94258.59;4951305;29;7477;-61
2023/05/23 08:52:02;;;;;;;;;;;;;;;27.61;43.67;94259.84;4947485;28;7367;-61
2023/05/23 08:55:02;;;;;;;;;;;;;;;27.64;43.56;94261.59;4933867;29;8411;-61
2023/05/23 08:57:48;;;;;;;;;;;;;;;27.62;43.43;94262.09;4940906;29;7123;-61
2023/05/23 09:00:17;;;;;;;;;;;;;;;27.57;43.69;94256.66;4939374;29;9116;-61
2023/05/23 09:02:46;;;;;;;;;;;;;;;27.59;43.35;94262.41;4943657;28;9288;-61
2023/05/23 09:05:15;;;;;;;;;;;;;;;27.59;44.06;94260.41;4944743;29;7035;-60
2023/05/23 09:07:46;;;;;;;;;;;;;;;27.60;43.60;94264.63;4943628;29;7273;-61
2023/05/23 09:10:19;;;;;;;;;;;;;;;27.60;43.32;94264.63;4930861;29;8547;-61
2023/05/23 09:13:36;;;;;;;;;;;;;;;27.62;43.34;94270.38;4924389;29;7151;-61
2023/05/23 09:16:47;;;;;;;;;;;;;;;27.62;43.36;94264.84;4959080;28;7369;-61
2023/05/23 09:19:23;;;;;;;;;;;;;;;27.60;43.51;94267.41;5028189;28;7491;-61
2023/05/23 09:21:55;;;;;;;;;;;;;;;27.61;43.21;94262.63;5050645;28;7088;-60
2023/05/23 09:24:23;;;;;;;;;;;;;;;27.62;43.04;94266.88;5049440;28;9401;-61
2023/05/23 09:26:49;;;;;;;;;;;;;;;27.61;43.22;94268.91;5022738;28;7058;-61
2023/05/23 09:29:20;;;;;;;;;;;;;;;27.60;43.04;94267.41;5022487;28;7349;-61
2023/05/23 09:31:59;;;;;;;;;;;;;;;27.60;43.34;94275.69;5036313;28;9032;-61
2023/05/23 09:35:03;;;;;;;;;;;;;;;27.60;43.43;94270.16;5022418;28;7473;-61
2023/05/23 09:37:46;;;;;;;;;;;;;;;27.60;43.40;94264.63;5021480;28;7275;-61
2023/05/23 09:40:14;;;;;;;;;;;;;;;27.61;43.47;94265.38;5020576;28;7092;-61
2023/05/23 09:42:46;;;;;;;;;;;;;;;27.61;43.02;94266.13;5027938;28;8715;-61
2023/05/23 09:45:20;;;;;;;;;;;;;;;27.62;43.33;94258.59;5023593;28;7270;-61
2023/05/23 09:47:58;;;;;;;;;;;;;;;27.60;43.33;94267.41;5017560;28;7077;-61
2023/05/23 09:50:32;;;;;;;;;;;;;;;27.60;43.22;94261.13;5046235;28;7199;-61
2023/05/23 09:53:09;;;;;;;;;;;;;;;27.60;43.25;94259.09;5053538;28;7235;-61
2023/05/23 09:55:57;;;;;;;;;;;;;;;27.66;43.48;94261.03;5024705;28;7401;-61
2023/05/23 09:58:52;;;;;;;;;;;;;;;27.67;43.59;94260.50;5038948;28;7039;-61
2023/05/23 10:05:30;;;;;;;;;;;;;;;27.68;43.55;94262.00;4984160;28;8708;-61
2023/05/23 10:08:41;;;;;;;;;;;;;;;27.69;43.48;94257.97;4921234;28;7457;-62
2023/05/23 10:11:52;;;;;;;;;;;;;;;27.70;43.55;94264.25;4933325;28;8336;-62
2023/05/23 10:14:18;;;;;;;;;;;;;;;27.71;43.50;94255.41;4935824;28;9058;-61
2023/05/23 10:17:04;;;;;;;;;;;;;;;27.71;43.71;94254.69;4943766;28;7011;-61
2023/05/23 10:19:45;;;;;;;;;;;;;;;27.72;43.82;94254.16;4927741;28;7734;-61
2023/05/23 10:22:24;;;;;;;;;;;;;;;27.74;43.78;94248.09;4940566;28;7343;-61
2023/05/23 10:24:59;;;;;;;;;;;;;;;27.74;43.89;94248.09;4940167;28;7028;-61
2023/05/23 10:27:26;;;;;;;;;;;;;;;27.74;43.81;94245.31;4933709;28;7220;-61
2023/05/23 10:30:06;;;;;;;;;;;;;;;27.76;43.81;94237.25;4938609;28;9246;-61
2023/05/23 10:32:52;;;;;;;;;;;;;;;27.76;43.78;94229.72;4919908;28;8292;-61
2023/05/23 10:36:16;;;;;;;;;;;;;;;27.77;43.69;94222.91;4937405;28;8978;-61
2023/05/23 10:39:31;;;;;;;;;;;;;;;27.79;43.84;94225.16;4901229;29;7589;-61
2023/05/23 10:42:20;;;;;;;;;;;;;;;27.79;43.64;94228.66;4950535;28;7032;-61
2023/05/23 10:45:31;;;;;;;;;;;;;;;27.81;43.60;94225.34;5028851;28;9372;-61
2023/05/23 10:48:01;;;;;;;;;;;;;;;27.80;43.99;94232.16;5018608;28;9043;-61
2023/05/23 10:54:12;;;;;;;;;;;;;;;27.77;43.63;94230.47;5025827;28;7042;-61
2023/05/23 10:57:26;;;;;;;;;;;;;;;27.79;43.83;94231.44;5022120;28;7243;-61
2023/05/23 10:59:57;;;;;;;;;;;;;;;27.79;43.96;94233.44;5039419;28;9557;-61
2023/05/23 11:02:53;;;;;;;;;;;;;;;27.80;43.84;94243.22;5023776;28;9441;-62
2023/05/23 11:05:23;;;;;;;;;;;;;;;27.81;43.74;94236.41;5008152;28;8256;-61
2023/05/23 11:08:13;;;;;;;;;;;;;;;27.80;43.77;94234.91;5024047;28;8728;-61
2023/05/23 11:11:00;;;;;;;;;;;;;;;27.80;43.87;94232.91;5008777;28;9343;-61
2023/05/23 11:13:48;;;;;;;;;;;;;;;27.80;43.55;94223.84;5010475;28;7039;-61
2023/05/23 11:24:01;;;;;;;;;;;;;;;27.83;43.74;94211.75;4966349;28;9401;-62
2023/05/23 11:27:10;;;;;;;;;;;;;;;27.84;43.76;94211.22;4959287;28;7142;-61
2023/05/23 11:29:56;;;;;;;;;;;;;;;27.83;43.91;94211.75;4954360;28;9441;-61
2023/05/23 11:32:36;;;;;;;;;;;;;;;27.84;43.77;94197.41;4981589;28;9158;-61
2023/05/23 11:35:15;;;;;;;;;;;;;;;27.87;43.75;94195.59;4955609;28;7289;-61
2023/05/23 11:38:27;;;;;;;;;;;;;;;27.89;43.92;94190.28;4949585;28;8989;-61
2023/05/23 11:41:13;;;;;;;;;;;;;;;27.90;43.79;94189.00;4963846;28;9153;-61
2023/05/23 11:44:35;;;;;;;;;;;;;;;27.90;43.71;94189.78;4951999;28;8824;-61
2023/05/23 11:47:11;;;;;;;;;;;;;;;27.90;43.64;94184.25;4950765;28;9124;-61
2023/05/23 11:50:09;;;;;;;;;;;;;;;27.92;43.39;94172.63;4950766;28;8992;-61
2023/05/23 11:52:35;;;;;;;;;;;;;;;27.93;43.43;94179.66;4970427;28;7237;-61
2023/05/23 11:55:40;;;;;;;;;;;;;;;27.95;43.49;94171.59;4972686;28;7154;-61
2023/05/23 11:58:33;;;;;;;;;;;;;;;27.96;43.50;94175.81;4986616;28;7099;-61
2023/05/23 12:01:32;;;;;;;;;;;;;;;27.97;43.75;94164.25;5050528;28;9083;-61
2023/05/23 12:04:34;;;;;;;;;;;;;;;27.99;43.75;94163.75;4992036;28;7089;-61
2023/05/23 12:07:10;;;;;;;;;;;;;;;27.97;43.51;94160.75;5028254;28;7060;-62
2023/05/23 12:10:05;;;;;;;;;;;;;;;27.99;43.54;94170.00;5022161;28;7276;-61
2023/05/23 12:12:50;;;;;;;;;;;;;;;28.01;43.75;94156.41;4950966;28;7639;-61
2023/05/23 12:15:31;;;;;;;;;;;;;;;28.02;44.26;94162.66;4964554;28;9060;-61
2023/05/23 12:17:58;;;;;;;;;;;;;;;28.02;43.47;94146.81;4963117;28;8942;-61
2023/05/23 12:20:31;;;;;;;;;;;;;;;28.04;43.43;94157.34;4950686;28;7022;-61
2023/05/23 12:22:57;;;;;;;;;;;;;;;28.04;43.69;94149.81;4958840;28;8124;-61
2023/05/23 12:25:24;;;;;;;;;;;;;;;28.04;43.54;94154.56;4947156;28;7536;-61
2023/05/23 12:27:55;;;;;;;;;;;;;;;28.05;43.81;94151.31;4960350;28;9218;-61
2023/05/23 12:30:53;;;;;;;;;;;;;;;28.08;43.58;94141.94;4963741;28;7039;-61
2023/05/23 12:33:19;;;;;;;;;;;;;;;28.10;42.94;94144.91;4872455;29;9675;-61
2023/05/23 12:35:59;;;;;;;;;;;;;;;28.11;44.21;94142.88;4871604;29;9055;-61
2023/05/23 12:39:03;;;;;;;;;;;;;;;28.13;43.85;94145.84;4858652;29;9749;-62
2023/05/23 12:42:07;;;;;;;;;;;;;;;28.12;43.78;94141.63;4857084;29;7277;-62
2023/05/23 12:45:03;;;;;;;;;;;;;;;28.12;43.94;94127.78;4832737;29;7606;-62
2023/05/23 12:47:30;;;;;;;;;;;;;;;28.10;44.00;94136.59;4835645;29;8821;-62
2023/05/23 12:49:57;;;;;;;;;;;;;;;28.09;44.00;94129.59;4871086;29;7287;-62
2023/05/23 12:52:26;;;;;;;;;;;;;;;28.10;44.14;94142.13;4891287;29;7303;-62
2023/05/23 12:55:29;;;;;;;;;;;;;;;28.12;44.19;94150.63;4878331;29;7114;-62
2023/05/23 12:58:15;;;;;;;;;;;;;;;28.09;44.32;94146.19;4868516;29;7315;-62
2023/05/23 13:00:54;;;;;;;;;;;;;;;28.12;44.55;94152.69;4839928;29;9104;-62
2023/05/23 13:04:10;;;;;;;;;;;;;;;28.15;44.46;94151.59;4829248;29;7287;-62
2023/05/23 13:07:21;;;;;;;;;;;;;;;28.17;44.48;94151.81;4783078;29;7521;-62
2023/05/23 13:10:03;;;;;;;;;;;;;;;28.16;44.60;94151.09;4769774;29;7808;-62
2023/05/23 13:12:55;;;;;;;;;;;;;;;28.17;44.40;94157.34;4776147;29;7782;-63
2023/05/23 13:15:33;;;;;;;;;;;;;;;28.16;44.07;94170.44;4785153;29;7409;-62
2023/05/23 13:18:40;;;;;;;;;;;;;;;28.18;44.58;94175.44;4812591;29;8066;-62
2023/05/23 13:21:07;;;;;;;;;;;;;;;28.18;43.98;94169.91;4835572;29;8764;-62
2023/05/23 13:23:44;;;;;;;;;;;;;;;28.18;44.40;94167.13;4838149;29;7234;-62
2023/05/23 13:26:27;;;;;;;;;;;;;;;28.18;44.68;94178.19;4859073;29;7183;-62
2023/05/23 13:28:53;;;;;;;;;;;;;;;28.18;44.71;94187.25;4836614;29;8391;-62
2023/05/23 13:31:50;;;;;;;;;;;;;;;28.19;44.08;94187.97;4852321;29;7479;-61
2023/05/23 13:34:30;;;;;;;;;;;;;;;28.15;44.24;94182.00;4822500;29;7263;-61
2023/05/23 13:36:57;;;;;;;;;;;;;;;28.12;44.02;94183.09;4820592;29;7256;-62
2023/05/23 13:39:33;;;;;;;;;;;;;;;28.12;44.02;94178.28;4810804;29;9838;-61
2023/05/23 13:42:30;;;;;;;;;;;;;;;28.11;44.20;94182.34;4879233;29;7255;-61
2023/05/23 13:45:10;;;;;;;;;;;;;;;28.08;44.25;94174.34;4892537;29;9386;-61
2023/05/23 13:47:37;;;;;;;;;;;;;;;28.10;44.10;94180.13;4926855;28;7201;-61
2023/05/23 13:50:08;;;;;;;;;;;;;;;28.08;44.04;94177.88;4941706;28;9458;-61
2023/05/23 13:52:35;;;;;;;;;;;;;;;28.09;43.92;94186.91;4947752;28;8941;-61
2023/05/23 13:55:03;;;;;;;;;;;;;;;28.10;44.13;94196.72;4951550;28;9009;-61
2023/05/23 13:58:04;;;;;;;;;;;;;;;28.11;43.80;94207.22;4937805;28;7231;-60
2023/05/23 14:01:14;;;;;;;;;;;;;;;28.12;44.18;94213.50;4878551;29;9143;-61
2023/05/23 14:04:19;;;;;;;;;;;;;;;28.09;44.19;94203.50;4887297;29;9401;-61
2023/05/23 14:06:55;;;;;;;;;;;;;;;28.11;43.90;94193.41;4874165;29;7300;-62
2023/05/23 14:09:23;;;;;;;;;;;;;;;28.13;44.24;94203.94;4860665;29;7207;-62
2023/05/23 14:11:51;;;;;;;;;;;;;;;28.12;44.27;94213.50;4957818;28;7102;-62
2023/05/23 14:14:17;;;;;;;;;;;;;;;28.09;44.26;94218.09;4953647;28;7186;-62
2023/05/23 14:16:44;;;;;;;;;;;;;;;28.11;44.64;94221.06;4951653;28;7208;-61
2023/05/23 14:19:17;;;;;;;;;;;;;;;28.12;44.20;94219.03;4952751;28;7462;-61
2023/05/23 14:21:54;;;;;;;;;;;;;;;28.10;44.18;94218.84;4931474;28;9105;-62
2023/05/23 14:24:21;;;;;;;;;;;;;;;28.12;43.73;94230.09;4952091;28;9251;-62
2023/05/23 14:27:06;;;;;;;;;;;;;;;28.15;44.41;94242.84;4939492;28;8189;-62
2023/05/23 14:29:45;;;;;;;;;;;;;;;28.12;44.33;94233.59;4931537;28;7388;-62
2023/05/23 14:32:18;;;;;;;;;;;;;;;28.14;44.29;94236.56;4935620;28;7351;-61